createdAt,value
2023-02-05T00:02:12.162Z,2.30
2023-02-05T00:04:40.268Z,2.30
2023-02-05T00:07:08.410Z,2.30
2023-02-05T00:09:40.776Z,2.30
2023-02-05T00:12:08.915Z,2.30
2023-02-05T00:14:38.380Z,2.30
2023-02-05T00:17:06.393Z,2.40
2023-02-05T00:19:34.467Z,2.40
2023-02-05T00:22:02.481Z,2.40
2023-02-05T00:24:30.539Z,2.30
2023-02-05T00:26:58.578Z,2.40
2023-02-05T00:29:26.592Z,2.30
2023-02-05T00:31:56.060Z,2.30
2023-02-05T00:34:24.118Z,2.30
2023-02-05T00:36:52.263Z,2.30
2023-02-05T00:39:20.300Z,2.30
2023-02-05T00:41:48.348Z,2.40
2023-02-05T00:44:16.458Z,2.30
2023-02-05T00:46:44.459Z,2.30
2023-02-05T00:49:14.015Z,2.30
2023-02-05T00:51:42.085Z,2.30
2023-02-05T00:54:10.076Z,2.30
2023-02-05T00:56:38.145Z,2.30
2023-02-05T00:59:06.136Z,2.30
2023-02-05T01:01:34.251Z,2.30
2023-02-05T01:04:02.319Z,2.30
2023-02-05T01:06:31.834Z,2.40
2023-02-05T01:08:59.835Z,2.40
2023-02-05T01:11:27.922Z,2.40
2023-02-05T01:13:55.941Z,2.40
2023-02-05T01:16:23.985Z,2.30
2023-02-05T01:18:52.710Z,2.40
2023-02-05T01:21:20.701Z,2.40
2023-02-05T01:23:50.164Z,2.40
2023-02-05T01:26:18.187Z,2.40
2023-02-05T01:28:46.212Z,2.40
2023-02-05T01:31:14.288Z,2.40
2023-02-05T01:33:42.338Z,2.40
2023-02-05T01:36:10.518Z,2.40
2023-02-05T01:38:38.528Z,2.40
2023-02-05T01:41:09.231Z,2.50
2023-02-05T01:43:37.242Z,2.50
2023-02-05T01:46:12.892Z,2.50
2023-02-05T01:48:43.694Z,2.50
2023-02-05T01:51:12.965Z,2.50
2023-02-05T01:53:41.412Z,2.50
2023-02-05T01:56:12.267Z,2.50
2023-02-05T01:58:42.932Z,2.50
2023-02-05T02:01:10.915Z,2.60
2023-02-05T02:03:40.533Z,2.60
2023-02-05T02:06:08.663Z,2.60
2023-02-05T02:08:36.628Z,2.60
2023-02-05T02:11:06.324Z,2.60
2023-02-05T02:13:36.678Z,2.60
2023-02-05T02:16:05.695Z,2.60
2023-02-05T02:18:35.573Z,2.60
2023-02-05T02:21:26.886Z,2.70
2023-02-05T02:24:04.555Z,2.60
2023-02-05T02:26:40.635Z,2.70
2023-02-05T02:29:12.620Z,2.70
2023-02-05T02:31:42.143Z,2.70
2023-02-05T02:34:13.519Z,2.70
2023-02-05T02:36:46.182Z,2.70
2023-02-05T02:39:16.274Z,2.70
2023-02-05T02:41:46.784Z,2.70
2023-02-05T02:44:20.128Z,2.70
2023-02-05T02:46:49.911Z,2.70
2023-02-05T02:49:19.537Z,2.70
2023-02-05T02:51:48.294Z,2.70
2023-02-05T02:54:18.421Z,2.70
2023-02-05T02:56:48.384Z,2.70
2023-02-05T02:59:18.880Z,2.70
2023-02-05T03:01:53.748Z,2.70
2023-02-05T03:04:23.594Z,2.70
2023-02-05T03:06:53.136Z,2.70
2023-02-05T03:09:23.784Z,2.70
2023-02-05T03:11:51.748Z,2.60
2023-02-05T03:14:21.322Z,2.60
2023-02-05T03:16:49.481Z,2.60
2023-02-05T03:19:17.972Z,2.60
2023-02-05T03:21:48.382Z,2.60
2023-02-05T03:24:16.721Z,2.60
2023-02-05T03:26:44.841Z,2.60
2023-02-05T03:29:14.379Z,2.60
2023-02-05T03:31:48.600Z,2.60
2023-02-05T03:34:22.538Z,2.70
2023-02-05T03:36:56.142Z,2.60
2023-02-05T03:39:28.574Z,2.60
2023-02-05T03:42:04.425Z,2.60
2023-02-05T03:44:47.053Z,2.60
2023-02-05T03:47:21.765Z,2.60
2023-02-05T03:49:53.437Z,2.60
2023-02-05T03:52:23.493Z,2.60
2023-02-05T03:54:52.742Z,2.60
2023-02-05T03:57:24.116Z,2.60
2023-02-05T03:59:52.402Z,2.60
2023-02-05T04:02:23.191Z,2.60
2023-02-05T04:04:51.328Z,2.60
2023-02-05T04:07:19.510Z,2.60
2023-02-05T04:09:47.473Z,2.60
2023-02-05T04:12:15.473Z,2.60
2023-02-05T04:14:43.566Z,3.30
2023-02-05T04:17:12.633Z,2.70
2023-02-05T04:19:42.684Z,2.60
2023-02-05T04:22:10.750Z,2.60
2023-02-05T04:24:38.721Z,2.60
2023-02-05T04:27:06.862Z,2.60
2023-02-05T04:29:34.820Z,2.60
2023-02-05T04:32:02.816Z,2.60
2023-02-05T04:34:30.901Z,2.60
2023-02-05T04:37:00.326Z,2.60
2023-02-05T04:39:28.431Z,2.60
2023-02-05T04:41:56.473Z,2.60
2023-02-05T04:44:24.674Z,2.60
2023-02-05T04:46:52.679Z,2.60
2023-02-05T04:49:20.796Z,2.60
2023-02-05T04:51:48.725Z,2.60
2023-02-05T04:54:18.139Z,2.60
2023-02-05T04:56:46.834Z,2.60
2023-02-05T04:59:14.826Z,2.60
2023-02-05T05:01:43.030Z,2.60
2023-02-05T05:04:11.054Z,2.60
2023-02-05T05:06:39.176Z,2.60
2023-02-05T05:09:07.162Z,2.60
2023-02-05T05:11:36.596Z,2.60
2023-02-05T05:14:04.776Z,2.70
2023-02-05T05:16:32.698Z,2.60
2023-02-05T05:19:00.706Z,2.60
2023-02-05T05:21:30.597Z,2.70
2023-02-05T05:23:58.604Z,2.70
2023-02-05T05:26:26.575Z,2.70
2023-02-05T05:28:56.527Z,2.60
2023-02-05T05:31:25.101Z,2.60
2023-02-05T05:33:53.179Z,2.60
2023-02-05T05:36:21.192Z,2.60
2023-02-05T05:38:49.199Z,2.60
2023-02-05T05:41:36.657Z,2.60
2023-02-05T05:44:06.469Z,2.60
2023-02-05T05:46:34.519Z,2.60
2023-02-05T05:49:03.422Z,2.60
2023-02-05T05:51:32.594Z,2.60
2023-02-05T05:54:00.814Z,2.60
2023-02-05T05:56:28.987Z,2.60
2023-02-05T05:58:57.104Z,2.60
2023-02-05T06:01:26.463Z,2.60
2023-02-05T06:03:54.608Z,2.60
2023-02-05T06:06:22.612Z,2.60
2023-02-05T06:08:50.664Z,2.60
2023-02-05T06:11:18.784Z,2.60
2023-02-05T06:13:46.925Z,2.60
2023-02-05T06:16:14.991Z,2.60
2023-02-05T06:18:44.440Z,2.60
2023-02-05T06:21:12.714Z,2.60
2023-02-05T06:23:40.800Z,2.60
2023-02-05T06:26:08.842Z,2.60
2023-02-05T06:28:37.021Z,2.60
2023-02-05T06:31:05.231Z,2.60
2023-02-05T06:33:35.133Z,2.60
2023-02-05T06:36:07.333Z,2.60
2023-02-05T06:38:35.329Z,2.50
2023-02-05T06:41:03.310Z,2.50
2023-02-05T06:43:31.298Z,2.50
2023-02-05T06:45:59.400Z,2.40
2023-02-05T06:48:27.481Z,2.40
2023-02-05T06:50:55.460Z,2.40
2023-02-05T06:53:24.952Z,2.40
2023-02-05T06:55:52.968Z,2.40
2023-02-05T06:58:20.964Z,2.50
2023-02-05T07:00:49.201Z,2.50
2023-02-05T07:03:17.380Z,2.50
2023-02-05T07:05:45.496Z,2.50
2023-02-05T07:08:13.580Z,2.50
2023-02-05T07:10:42.981Z,2.50
2023-02-05T07:13:11.035Z,2.50
2023-02-05T07:15:39.070Z,2.50
2023-02-05T07:18:07.649Z,2.50
2023-02-05T07:20:35.679Z,2.40
2023-02-05T07:23:03.744Z,2.40
2023-02-05T07:25:36.504Z,2.40
2023-02-05T07:28:06.341Z,2.30
2023-02-05T07:30:34.809Z,2.30
2023-02-05T07:33:03.554Z,2.30
2023-02-05T07:35:32.198Z,2.30
2023-02-05T07:38:00.594Z,2.30
2023-02-05T07:40:28.603Z,2.30
2023-02-05T07:42:56.582Z,2.30
2023-02-05T07:45:25.955Z,2.40
2023-02-05T07:47:53.989Z,2.30
2023-02-05T07:50:22.163Z,2.30
2023-02-05T07:52:50.257Z,2.30
2023-02-05T07:55:18.333Z,2.40
2023-02-05T07:57:47.027Z,2.40
2023-02-05T08:00:15.265Z,2.40
2023-02-05T08:02:44.672Z,2.50
2023-02-05T08:05:12.658Z,2.50
2023-02-05T08:07:40.667Z,2.50
2023-02-05T08:10:10.071Z,2.50
2023-02-05T08:12:38.135Z,2.60
2023-02-05T08:15:06.338Z,2.60
2023-02-05T08:17:34.349Z,2.60
2023-02-05T08:20:07.347Z,2.60
2023-02-05T08:22:36.571Z,2.60
2023-02-05T08:25:06.065Z,2.70
2023-02-05T08:27:34.493Z,2.70
2023-02-05T08:30:02.473Z,2.70
2023-02-05T08:32:30.645Z,2.70
2023-02-05T08:34:58.807Z,2.70
2023-02-05T08:37:28.516Z,2.70
2023-02-05T08:39:56.706Z,2.80
2023-02-05T08:42:25.060Z,2.80
2023-02-05T08:44:53.174Z,2.80
2023-02-05T08:47:21.193Z,2.80
2023-02-05T08:49:49.370Z,2.90
2023-02-05T08:52:17.446Z,2.90
2023-02-05T08:54:48.068Z,3.00
2023-02-05T08:57:16.575Z,3.00
2023-02-05T08:59:44.608Z,3.10
2023-02-05T09:02:14.871Z,3.20
2023-02-05T09:04:43.067Z,3.20
2023-02-05T09:07:11.259Z,3.20
2023-02-05T09:09:39.242Z,3.20
2023-02-05T09:12:10.638Z,3.30
2023-02-05T09:14:38.806Z,3.30
2023-02-05T09:17:07.803Z,3.30
2023-02-05T09:19:36.412Z,3.30
2023-02-05T09:22:04.509Z,3.40
2023-02-05T09:24:32.619Z,3.40
2023-02-05T09:27:00.708Z,3.50
2023-02-05T09:29:30.733Z,3.50
2023-02-05T09:31:59.126Z,3.50
2023-02-05T09:34:27.391Z,3.50
2023-02-05T09:36:56.948Z,3.60
2023-02-05T09:40:01.926Z,3.60
2023-02-05T09:42:17.235Z,3.60
2023-02-05T09:44:51.845Z,3.60
2023-02-05T09:47:24.030Z,3.60
2023-02-05T09:49:56.368Z,3.50
2023-02-05T09:52:28.287Z,3.60
2023-02-05T09:54:58.498Z,3.60
2023-02-05T09:57:32.188Z,3.60
2023-02-05T10:00:01.610Z,3.60
2023-02-05T10:02:32.874Z,3.60
2023-02-05T10:05:00.900Z,3.70
2023-02-05T10:07:39.192Z,3.70
2023-02-05T10:10:25.032Z,3.70
2023-02-05T10:12:59.157Z,3.80
2023-02-05T10:15:33.679Z,3.80
2023-02-05T10:18:11.632Z,3.80
2023-02-05T10:20:45.376Z,3.90
2023-02-05T10:23:16.451Z,3.90
2023-02-05T10:25:57.586Z,3.90
2023-02-05T10:28:33.403Z,3.90
2023-02-05T10:31:08.176Z,3.90
2023-02-05T10:33:43.608Z,3.90
2023-02-05T10:36:12.241Z,3.90
2023-02-05T10:38:42.872Z,3.90
2023-02-05T10:41:16.413Z,3.90
2023-02-05T10:43:48.675Z,3.80
2023-02-05T10:46:18.915Z,3.80
2023-02-05T10:48:48.066Z,3.80
2023-02-05T10:51:17.427Z,3.80
2023-02-05T10:53:45.567Z,3.80
2023-02-05T10:56:17.132Z,3.80
2023-02-05T10:58:47.667Z,3.80
2023-02-05T11:01:17.413Z,3.80
2023-02-05T11:03:53.659Z,3.80
2023-02-05T11:06:22.664Z,3.80
2023-02-05T11:08:50.860Z,3.80
2023-02-05T11:11:23.761Z,3.80
2023-02-05T11:13:53.136Z,3.80
2023-02-05T11:16:21.478Z,3.90
2023-02-05T11:18:58.699Z,3.90
2023-02-05T11:21:46.328Z,3.90
2023-02-05T11:24:23.240Z,4.00
2023-02-05T11:26:51.519Z,4.00
2023-02-05T11:29:24.696Z,4.00
2023-02-05T11:31:52.890Z,4.10
2023-02-05T11:34:22.250Z,4.10
2023-02-05T11:36:51.524Z,4.10
2023-02-05T11:39:26.014Z,4.20
2023-02-05T11:41:56.605Z,4.20
2023-02-05T11:44:27.993Z,4.30
2023-02-05T11:46:58.482Z,4.30
2023-02-05T11:49:32.152Z,4.40
2023-02-05T11:52:01.728Z,4.40
2023-02-05T11:54:31.719Z,4.50
2023-02-05T11:57:05.123Z,4.60
2023-02-05T11:59:33.298Z,4.70
2023-02-05T12:02:25.130Z,4.80
2023-02-05T12:04:58.160Z,4.80
2023-02-05T12:07:27.731Z,5.00
2023-02-05T12:09:59.531Z,5.10
2023-02-05T12:12:31.612Z,5.10
2023-02-05T12:15:04.495Z,5.20
2023-02-05T12:17:35.097Z,5.30
2023-02-05T12:20:13.016Z,5.30
2023-02-05T12:22:58.806Z,5.40
2023-02-05T12:25:30.164Z,5.40
2023-02-05T12:28:04.283Z,5.50
2023-02-05T12:30:36.275Z,5.50
2023-02-05T12:33:13.807Z,5.60
2023-02-05T12:35:53.355Z,5.60
2023-02-05T12:38:32.000Z,5.70
2023-02-05T12:41:06.141Z,5.70
2023-02-05T12:43:38.106Z,5.80
2023-02-05T12:46:19.310Z,5.80
2023-02-05T12:48:53.906Z,5.80
2023-02-05T12:51:39.013Z,5.80
2023-02-05T12:54:15.423Z,5.80
2023-02-05T12:56:52.881Z,5.80
2023-02-05T12:59:24.939Z,5.80
2023-02-05T13:01:54.987Z,5.80
2023-02-05T13:04:26.208Z,5.80
2023-02-05T13:06:59.729Z,5.90
2023-02-05T13:09:32.099Z,5.90
2023-02-05T13:12:02.094Z,5.80
2023-02-05T13:14:33.100Z,5.80
2023-02-05T13:17:04.122Z,5.80
2023-02-05T13:19:34.142Z,5.80
2023-02-05T13:22:24.189Z,5.80
2023-02-05T13:25:11.438Z,5.80
2023-02-05T13:27:59.017Z,5.80
2023-02-05T13:30:29.567Z,5.80
2023-02-05T13:33:00.115Z,5.80
2023-02-05T13:35:29.095Z,5.80
2023-02-05T13:38:14.818Z,5.80
2023-02-05T13:40:50.388Z,5.80
2023-02-05T13:43:31.512Z,5.80
2023-02-05T13:46:15.214Z,5.80
2023-02-05T13:48:54.654Z,5.70
2023-02-05T13:51:28.468Z,5.80
2023-02-05T13:54:02.849Z,5.80
2023-02-05T13:56:38.180Z,5.70
2023-02-05T13:59:08.721Z,5.70
2023-02-05T14:01:41.263Z,5.70
2023-02-05T14:04:18.133Z,5.80
2023-02-05T14:06:48.487Z,5.70
2023-02-05T14:09:22.396Z,5.70
2023-02-05T14:11:55.698Z,5.80
2023-02-05T14:14:34.891Z,5.70
2023-02-05T14:17:04.164Z,5.80
2023-02-05T14:19:56.101Z,5.80
2023-02-05T14:22:35.351Z,5.80
2023-02-05T14:25:05.285Z,5.80
2023-02-05T14:27:52.142Z,5.80
2023-02-05T14:30:44.432Z,5.80
2023-02-05T14:33:27.473Z,5.90
2023-02-05T14:35:56.404Z,5.90
2023-02-05T14:38:25.709Z,5.90
2023-02-05T14:41:13.598Z,5.90
2023-02-05T14:43:42.664Z,6.00
2023-02-05T14:46:21.545Z,6.00
2023-02-05T14:48:49.604Z,6.00
2023-02-05T14:51:22.682Z,6.00
2023-02-05T14:53:55.974Z,6.00
2023-02-05T14:56:31.467Z,6.00
2023-02-05T14:59:01.808Z,6.00
2023-02-05T15:01:43.081Z,6.00
2023-02-05T15:04:20.150Z,6.00
2023-02-05T15:06:48.936Z,6.00
2023-02-05T15:09:18.764Z,6.10
2023-02-05T15:11:53.801Z,6.10
2023-02-05T15:14:38.089Z,6.10
2023-02-05T15:17:20.979Z,6.10
2023-02-05T15:19:51.119Z,6.10
2023-02-05T15:22:25.451Z,6.10
2023-02-05T15:24:54.676Z,6.10
2023-02-05T15:27:25.239Z,6.20
2023-02-05T15:29:57.276Z,6.10
2023-02-05T15:32:26.802Z,6.20
2023-02-05T15:34:56.399Z,6.10
2023-02-05T15:37:26.750Z,6.20
2023-02-05T15:39:56.492Z,6.10
2023-02-05T15:42:30.793Z,6.10
2023-02-05T15:44:59.105Z,6.10
2023-02-05T15:47:29.627Z,6.10
2023-02-05T15:50:00.824Z,6.00
2023-02-05T15:52:30.177Z,6.10
2023-02-05T15:55:02.365Z,6.00
2023-02-05T15:57:32.762Z,6.00
2023-02-05T16:00:01.656Z,6.00
2023-02-05T16:02:30.377Z,6.00
2023-02-05T16:04:59.828Z,6.00
2023-02-05T16:07:29.105Z,6.00
2023-02-05T16:09:58.307Z,6.00
2023-02-05T16:12:26.542Z,6.00
2023-02-05T16:15:03.188Z,6.00
2023-02-05T16:17:35.873Z,5.90
2023-02-05T16:20:11.960Z,5.90
2023-02-05T16:22:41.961Z,5.90
2023-02-05T16:25:18.731Z,5.80
2023-02-05T16:27:50.230Z,5.80
2023-02-05T16:30:23.215Z,5.80
2023-02-05T16:32:54.427Z,5.80
2023-02-05T16:35:25.648Z,5.70
2023-02-05T16:37:53.805Z,5.70
2023-02-05T16:40:30.355Z,5.70
2023-02-05T16:42:58.448Z,5.60
2023-02-05T16:45:29.154Z,5.60
2023-02-05T16:48:15.486Z,5.50
2023-02-05T16:50:44.513Z,5.50
2023-02-05T16:53:22.030Z,5.50
2023-02-05T16:55:50.912Z,5.40
2023-02-05T16:58:21.570Z,5.40
2023-02-05T17:00:57.733Z,5.30
2023-02-05T17:03:27.232Z,5.20
2023-02-05T17:05:59.479Z,5.20
2023-02-05T17:08:30.724Z,5.10
2023-02-05T17:10:59.714Z,5.10
2023-02-05T17:13:29.306Z,5.10
2023-02-05T17:15:58.837Z,5.00
2023-02-05T17:18:28.837Z,5.00
2023-02-05T17:21:17.890Z,5.00
2023-02-05T17:23:48.461Z,4.90
2023-02-05T17:26:16.633Z,4.90
2023-02-05T17:28:46.682Z,4.90
2023-02-05T17:31:17.861Z,4.90
2023-02-05T17:33:50.589Z,4.80
2023-02-05T17:36:18.744Z,4.80
2023-02-05T17:38:48.703Z,4.80
2023-02-05T17:41:35.021Z,4.70
2023-02-05T17:44:03.116Z,4.70
2023-02-05T17:46:33.021Z,4.70
2023-02-05T17:49:01.084Z,4.70
2023-02-05T17:51:29.105Z,4.60
2023-02-05T17:53:57.091Z,4.60
2023-02-05T17:56:25.387Z,4.50
2023-02-05T17:58:53.739Z,4.50
2023-02-05T18:01:21.751Z,4.40
2023-02-05T18:03:51.120Z,4.40
2023-02-05T18:06:19.487Z,4.30
2023-02-05T18:08:47.498Z,4.30
2023-02-05T18:11:15.689Z,4.30
2023-02-05T18:13:43.819Z,4.20
2023-02-05T18:16:12.423Z,4.20
2023-02-05T18:18:40.899Z,4.10
2023-02-05T18:21:10.345Z,4.10
2023-02-05T18:23:38.487Z,4.00
2023-02-05T18:26:07.014Z,4.00
2023-02-05T18:28:35.554Z,4.00
2023-02-05T18:31:04.709Z,3.90
2023-02-05T18:33:33.000Z,3.90
2023-02-05T18:36:01.573Z,3.90
2023-02-05T18:38:32.572Z,3.90
2023-02-05T18:41:05.318Z,3.80
2023-02-05T18:43:34.135Z,3.80
2023-02-05T18:46:05.147Z,3.80
2023-02-05T18:48:33.245Z,3.80
2023-02-05T18:51:04.817Z,3.80
2023-02-05T18:53:34.502Z,3.80
2023-02-05T18:56:03.087Z,3.70
2023-02-05T18:58:31.161Z,3.70
2023-02-05T19:00:59.432Z,3.70
2023-02-05T19:03:28.497Z,3.70
2023-02-05T19:05:56.479Z,3.70
2023-02-05T19:08:24.619Z,3.70
2023-02-05T19:10:54.050Z,3.60
2023-02-05T19:13:37.260Z,3.60
2023-02-05T19:16:06.553Z,3.40
2023-02-05T19:18:34.614Z,3.60
2023-02-05T19:21:06.120Z,3.60
2023-02-05T19:23:34.634Z,3.60
2023-02-05T19:26:04.806Z,3.60
2023-02-05T19:28:32.861Z,3.60
2023-02-05T19:31:03.422Z,3.60
2023-02-05T19:33:32.797Z,3.60
2023-02-05T19:36:01.543Z,3.60
2023-02-05T19:38:29.665Z,3.60
2023-02-05T19:40:57.713Z,3.60
2023-02-05T19:43:27.058Z,3.60
2023-02-05T19:45:55.224Z,3.60
2023-02-05T19:48:23.422Z,3.50
2023-02-05T19:50:51.510Z,3.50
2023-02-05T19:53:21.201Z,3.50
2023-02-05T19:55:49.321Z,3.50
2023-02-05T19:58:17.572Z,3.50
2023-02-05T20:00:47.016Z,3.50
2023-02-05T20:03:15.287Z,3.50
2023-02-05T20:05:43.349Z,3.50
2023-02-05T20:08:11.373Z,3.50
2023-02-05T20:10:39.342Z,3.80
2023-02-05T20:13:09.812Z,3.50
2023-02-05T20:15:39.576Z,3.50
2023-02-05T20:18:09.006Z,3.50
2023-02-05T20:20:40.782Z,3.50
2023-02-05T20:23:09.226Z,3.50
2023-02-05T20:25:37.182Z,3.50
2023-02-05T20:28:05.334Z,3.40
2023-02-05T20:30:50.523Z,3.40
2023-02-05T20:33:19.908Z,3.40
2023-02-05T20:35:48.011Z,3.30
2023-02-05T20:38:16.045Z,3.30
2023-02-05T20:40:44.034Z,3.20
2023-02-05T20:43:12.077Z,3.30
2023-02-05T20:45:40.131Z,3.20
2023-02-05T20:48:08.420Z,3.20
2023-02-05T20:50:37.790Z,3.10
2023-02-05T20:53:07.677Z,3.10
2023-02-05T20:55:36.697Z,3.10
2023-02-05T20:58:04.737Z,3.10
2023-02-05T21:00:32.881Z,3.00
2023-02-05T21:03:01.009Z,3.10
2023-02-05T21:05:29.031Z,3.10
2023-02-05T21:07:58.484Z,3.10
2023-02-05T21:10:26.594Z,3.00
2023-02-05T21:12:54.602Z,3.00
2023-02-05T21:15:23.615Z,3.00
2023-02-05T21:17:51.684Z,3.00
2023-02-05T21:20:19.760Z,3.00
2023-02-05T21:22:47.787Z,3.00
2023-02-05T21:25:17.334Z,3.00
2023-02-05T21:27:45.396Z,3.00
2023-02-05T21:30:13.876Z,3.00
2023-02-05T21:32:41.969Z,3.00
2023-02-05T21:35:10.072Z,3.00
2023-02-05T21:37:39.288Z,3.00
2023-02-05T21:40:09.560Z,3.10
2023-02-05T21:42:39.322Z,3.00
2023-02-05T21:45:07.836Z,3.00
2023-02-05T21:47:35.972Z,3.00
2023-02-05T21:50:04.425Z,3.00
2023-02-05T21:52:32.425Z,3.00
2023-02-05T21:55:00.451Z,2.90
2023-02-05T21:57:28.490Z,2.90
2023-02-05T21:59:58.020Z,2.90
2023-02-05T22:02:26.042Z,2.90
2023-02-05T22:04:54.091Z,2.80
2023-02-05T22:07:22.070Z,2.70
2023-02-05T22:09:50.057Z,2.60
2023-02-05T22:12:18.071Z,2.60
2023-02-05T22:14:46.153Z,2.50
2023-02-05T22:17:15.556Z,2.50
2023-02-05T22:19:43.606Z,2.50
2023-02-05T22:22:11.624Z,2.50
2023-02-05T22:24:39.716Z,2.50
2023-02-05T22:27:07.928Z,2.50
2023-02-05T22:29:35.930Z,2.50
2023-02-05T22:32:03.985Z,2.50
2023-02-05T22:34:33.547Z,2.60
2023-02-05T22:37:01.595Z,2.60
2023-02-05T22:39:29.750Z,2.60
2023-02-05T22:41:57.706Z,2.50
2023-02-05T22:44:25.715Z,2.50
2023-02-05T22:46:53.689Z,2.50
2023-02-05T22:49:21.697Z,2.50
2023-02-05T22:51:52.302Z,2.50
2023-02-05T22:54:20.597Z,2.50
2023-02-05T22:56:48.623Z,2.50
2023-02-05T22:59:16.618Z,2.50
2023-02-05T23:01:44.747Z,2.40
2023-02-05T23:04:12.779Z,2.40
2023-02-05T23:06:42.147Z,2.40
2023-02-05T23:09:12.578Z,2.30
2023-02-05T23:11:40.986Z,2.30
2023-02-05T23:14:09.172Z,2.30
2023-02-05T23:16:38.732Z,2.20
2023-02-05T23:19:09.110Z,2.20
2023-02-05T23:21:37.913Z,2.30
2023-02-05T23:24:06.479Z,2.30
2023-02-05T23:26:38.442Z,2.30
2023-02-05T23:29:06.565Z,2.30
2023-02-05T23:31:35.233Z,2.30
2023-02-05T23:34:03.406Z,2.30
2023-02-05T23:36:31.763Z,2.30
2023-02-05T23:38:59.817Z,2.30
2023-02-05T23:41:37.129Z,2.30
2023-02-05T23:44:08.080Z,2.30
2023-02-05T23:46:36.602Z,2.40
2023-02-05T23:49:04.826Z,2.40
2023-02-05T23:51:33.123Z,2.30
2023-02-05T23:54:01.412Z,2.30
2023-02-05T23:56:29.960Z,2.30
2023-02-05T23:58:57.976Z,2.30
